Time;durP1;ratioP1;P1;durP2;ratioP2;P2;SDS_P1;SDS_P2;PMS_P1;PMS_P2;Temp;Humidity;BMP_temperature;BMP_pressure;BME280_temperature;BME280_humidity;BME280_pressure;Samples;Min_cycle;Max_cycle;Signal;HPM_P1;HPM_P2
2022/06/05 00:01:19;;;;;;;6.00;4.75;;;10.30;99.90;;;;;;5007847;28;20077;-60
2022/06/05 00:04:06;;;;;;;9.52;4.70;;;10.20;99.90;;;;;;5001068;28;20079;-60
2022/06/05 00:07:05;;;;;;;5.15;3.55;;;10.10;99.90;;;;;;4994327;28;20030;-59
2022/06/05 00:09:46;;;;;;;6.88;4.32;;;10.00;99.90;;;;;;4997311;28;20064;-58
2022/06/05 00:12:15;;;;;;;5.07;4.57;;;9.90;99.90;;;;;;4993107;28;20152;-59
2022/06/05 00:14:42;;;;;;;8.73;5.05;;;9.80;99.90;;;;;;4997931;28;20019;-59
2022/06/05 00:17:11;;;;;;;6.65;5.05;;;9.60;99.90;;;;;;5008340;28;20034;-59
2022/06/05 00:19:39;;;;;;;6.82;4.55;;;9.50;99.90;;;;;;5001234;28;20541;-60
2022/06/05 00:22:06;;;;;;;6.25;4.43;;;9.50;99.90;;;;;;5014337;28;20091;-59
2022/06/05 00:24:34;;;;;;;7.45;5.22;;;9.40;99.90;;;;;;5023236;28;20424;-59
2022/06/05 00:27:25;;;;;;;4.97;3.72;;;9.30;99.90;;;;;;5015886;28;20100;-59
2022/06/05 00:30:23;;;;;;;6.97;4.30;;;9.20;99.90;;;;;;5003484;28;20072;-60
2022/06/05 00:32:56;;;;;;;6.85;4.60;;;9.10;99.90;;;;;;5012548;28;20416;-60
2022/06/05 00:35:22;;;;;;;6.65;4.28;;;9.00;99.90;;;;;;4990739;28;20057;-60
2022/06/05 00:38:15;;;;;;;7.55;4.45;;;8.90;99.90;;;;;;5017244;28;20137;-60
2022/06/05 00:41:07;;;;;;;8.02;5.68;;;8.90;99.90;;;;;;4996261;28;20060;-60
2022/06/05 00:43:33;;;;;;;7.03;4.97;;;8.90;99.90;;;;;;4991931;28;20030;-60
2022/06/05 00:45:58;;;;;;;6.18;4.53;;;8.80;99.90;;;;;;5019379;28;20764;-59
2022/06/05 00:48:25;;;;;;;7.00;4.68;;;8.70;99.90;;;;;;5012737;28;20393;-59
2022/06/05 00:50:50;;;;;;;7.90;5.03;;;8.60;99.90;;;;;;5018116;28;20132;-59
2022/06/05 00:53:16;;;;;;;8.00;4.80;;;8.60;99.90;;;;;;5007876;28;20521;-60
2022/06/05 00:55:46;;;;;;;8.10;4.82;;;8.50;99.90;;;;;;5010161;28;20544;-60
2022/06/05 00:58:11;;;;;;;8.77;5.63;;;8.40;99.90;;;;;;5010693;28;20030;-60
2022/06/05 01:00:41;;;;;;;5.80;4.80;;;8.40;99.90;;;;;;4987473;28;20049;-55
2022/06/05 01:03:10;;;;;;;7.50;5.40;;;8.40;99.90;;;;;;5011386;28;20028;-54
2022/06/05 01:05:36;;;;;;;8.88;5.20;;;8.30;99.90;;;;;;4974510;28;20128;-56
2022/06/05 01:08:03;;;;;;;7.43;4.88;;;8.30;99.90;;;;;;5019342;28;20037;-56
2022/06/05 01:10:57;;;;;;;7.30;4.60;;;8.20;99.90;;;;;;4996738;28;20113;-49
2022/06/05 01:13:47;;;;;;;8.80;4.97;;;8.10;99.90;;;;;;4989670;28;20435;-47
2022/06/05 01:16:26;;;;;;;7.10;4.90;;;8.10;99.90;;;;;;5028209;28;20264;-47
2022/06/05 01:19:27;;;;;;;9.20;5.18;;;8.00;99.90;;;;;;4996721;28;20501;-48
2022/06/05 01:22:18;;;;;;;7.75;5.05;;;7.90;99.90;;;;;;4988931;28;20801;-48
2022/06/05 01:24:49;;;;;;;10.38;5.63;;;7.80;99.90;;;;;;5015338;28;20040;-49
2022/06/05 01:27:22;;;;;;;7.47;5.43;;;7.80;99.90;;;;;;4992425;28;20038;-49
2022/06/05 01:29:51;;;;;;;8.00;5.57;;;7.70;99.90;;;;;;5003263;28;20030;-47
2022/06/05 01:32:28;;;;;;;8.95;5.40;;;7.60;99.90;;;;;;5031389;28;20025;-48
2022/06/05 01:34:59;;;;;;;9.00;5.78;;;7.60;99.90;;;;;;5004195;28;20448;-48
2022/06/05 01:37:31;;;;;;;7.80;5.68;;;7.60;99.90;;;;;;5011794;28;20034;-49
2022/06/05 01:40:21;;;;;;;7.53;4.95;;;7.60;99.90;;;;;;5030906;28;20061;-48
2022/06/05 01:42:52;;;;;;;8.80;6.18;;;7.60;99.90;;;;;;4990989;28;20046;-47
2022/06/05 01:45:22;;;;;;;7.40;5.97;;;7.50;99.90;;;;;;4989716;28;20057;-51
2022/06/05 01:47:52;;;;;;;8.25;6.10;;;7.50;99.90;;;;;;4992291;28;20022;-52
2022/06/05 01:50:42;;;;;;;9.32;6.68;;;7.40;99.90;;;;;;5028975;28;20040;-51
2022/06/05 01:53:22;;;;;;;11.48;6.72;;;7.30;99.90;;;;;;5031120;28;20052;-49
2022/06/05 01:56:05;;;;;;;10.75;6.55;;;7.30;99.90;;;;;;4997932;28;20096;-49
2022/06/05 01:58:49;;;;;;;11.18;5.97;;;7.20;99.90;;;;;;5031478;28;20117;-47
2022/06/05 02:01:26;;;;;;;11.50;8.02;;;7.20;99.90;;;;;;4999091;28;20327;-48
2022/06/05 02:04:11;;;;;;;9.82;6.03;;;7.20;99.90;;;;;;4991551;28;20038;-49
2022/06/05 02:06:45;;;;;;;12.65;6.15;;;7.20;99.90;;;;;;5011283;28;20504;-53
2022/06/05 02:09:21;;;;;;;9.40;6.07;;;7.10;99.90;;;;;;4991885;28;20027;-49
2022/06/05 02:11:48;;;;;;;10.15;5.82;;;7.10;99.90;;;;;;4996109;28;20519;-50
2022/06/05 02:14:13;;;;;;;11.02;7.43;;;7.10;99.90;;;;;;4993842;28;20038;-50
2022/06/05 02:16:40;;;;;;;9.02;6.97;;;7.10;99.90;;;;;;5017126;28;20038;-47
2022/06/05 02:19:13;;;;;;;10.98;6.70;;;7.10;99.90;;;;;;5030066;28;20581;-49
2022/06/05 02:21:40;;;;;;;11.40;6.30;;;7.10;99.90;;;;;;5011255;28;20030;-48
2022/06/05 02:24:07;;;;;;;8.05;5.78;;;7.10;99.90;;;;;;5011199;28;20030;-47
2022/06/05 02:26:33;;;;;;;11.48;6.60;;;7.10;99.90;;;;;;5027979;28;20034;-60
2022/06/05 02:29:05;;;;;;;10.13;7.05;;;7.20;99.90;;;;;;5011277;28;20044;-59
2022/06/05 02:31:40;;;;;;;10.98;7.28;;;7.20;99.90;;;;;;5009151;28;20053;-59
2022/06/05 02:34:37;;;;;;;9.80;6.60;;;7.30;99.90;;;;;;4990774;28;20030;-61
2022/06/05 02:37:08;;;;;;;12.43;7.22;;;7.30;99.90;;;;;;4985941;28;20083;-61
2022/06/05 02:40:13;;;;;;;10.75;7.13;;;7.30;99.90;;;;;;5030307;28;20425;-60
2022/06/05 02:42:47;;;;;;;11.73;7.32;;;7.30;99.90;;;;;;5008282;28;20069;-61
2022/06/05 02:45:53;;;;;;;11.98;6.57;;;7.30;99.90;;;;;;4991115;28;20034;-61
2022/06/05 02:48:34;;;;;;;12.75;7.68;;;7.30;99.90;;;;;;4990868;28;20494;-62
2022/06/05 02:51:13;;;;;;;10.18;7.53;;;7.30;99.90;;;;;;5000364;28;20043;-61
2022/06/05 02:53:51;;;;;;;12.50;8.95;;;7.50;99.90;;;;;;5030028;28;20040;-61
2022/06/05 02:56:17;;;;;;;14.35;8.63;;;7.40;99.90;;;;;;5004805;28;20037;-61
2022/06/05 02:58:44;;;;;;;14.55;7.90;;;7.40;99.90;;;;;;5010707;28;20029;-61
2022/06/05 03:04:02;;;;;;;14.80;7.95;;;7.50;99.90;;;;;;5002021;28;20391;-61
2022/06/05 03:06:29;;;;;;;10.60;7.43;;;7.40;99.90;;;;;;5009621;28;20389;-61
2022/06/05 03:08:55;;;;;;;13.07;8.80;;;7.50;99.90;;;;;;5010464;28;20528;-61
2022/06/05 03:11:20;;;;;;;10.52;7.07;;;7.60;99.90;;;;;;5026967;28;20049;-61
2022/06/05 03:13:46;;;;;;;11.60;7.95;;;7.60;99.90;;;;;;5010322;28;20038;-61
2022/06/05 03:16:11;;;;;;;10.90;7.57;;;7.60;99.90;;;;;;5027143;28;20363;-61
2022/06/05 03:18:37;;;;;;;13.75;8.80;;;7.60;99.90;;;;;;5029664;28;20041;-61
2022/06/05 03:21:03;;;;;;;17.02;10.40;;;7.70;99.90;;;;;;5008119;28;20449;-61
2022/06/05 03:23:29;;;;;;;15.65;9.90;;;7.70;99.90;;;;;;5009869;28;20033;-61
2022/06/05 03:25:55;;;;;;;12.55;8.15;;;7.80;99.90;;;;;;5026837;28;20025;-61
2022/06/05 03:28:21;;;;;;;15.65;9.25;;;7.80;99.90;;;;;;5011650;28;20018;-61
2022/06/05 03:30:47;;;;;;;12.82;8.88;;;7.90;99.90;;;;;;5008007;28;20559;-61
2022/06/05 03:33:12;;;;;;;13.65;9.02;;;8.20;99.90;;;;;;5009779;28;20382;-61
2022/06/05 03:35:39;;;;;;;16.27;9.50;;;9.50;99.90;;;;;;5026396;28;20059;-61
2022/06/05 03:38:05;;;;;;;13.38;8.40;;;9.90;99.90;;;;;;5029174;28;20053;-61
2022/06/05 03:40:32;;;;;;;8.95;6.75;;;11.50;99.90;;;;;;5007504;28;20564;-61
2022/06/05 03:42:58;;;;;;;12.40;8.90;;;13.00;99.90;;;;;;5009535;28;20029;-61
2022/06/05 03:45:24;;;;;;;8.57;6.30;;;14.20;99.90;;;;;;5025963;28;20469;-61
2022/06/05 03:47:50;;;;;;;9.88;6.57;;;15.30;99.90;;;;;;5029014;28;20040;-61
2022/06/05 03:50:17;;;;;;;11.65;6.80;;;16.10;97.80;;;;;;4992222;28;20437;-61
2022/06/05 03:52:43;;;;;;;7.70;5.10;;;17.00;93.50;;;;;;5028972;28;20029;-61
2022/06/05 03:55:12;;;;;;;7.03;5.05;;;18.00;86.40;;;;;;5009683;28;20030;-62
2022/06/05 03:57:38;;;;;;;6.95;5.45;;;18.90;73.60;;;;;;5007539;28;20080;-62
2022/06/05 04:00:05;;;;;;;9.88;6.13;;;19.60;67.30;;;;;;5016644;28;20038;-62
2022/06/05 04:02:31;;;;;;;6.05;5.40;;;20.40;58.70;;;;;;5008413;28;20399;-61
2022/06/05 04:04:58;;;;;;;5.32;4.82;;;20.70;48.70;;;;;;5028305;28;20029;-62
2022/06/05 04:07:24;;;;;;;9.65;5.63;;;21.50;44.40;;;;;;4990420;28;20066;-62
2022/06/05 04:09:49;;;;;;;6.03;4.70;;;22.10;43.20;;;;;;5008300;28;20556;-62
2022/06/05 04:12:15;;;;;;;4.72;3.92;;;22.90;37.70;;;;;;5009985;28;20501;-62
2022/06/05 04:14:40;;;;;;;7.15;4.75;;;23.30;34.60;;;;;;5027839;28;20056;-62
2022/06/05 04:17:06;;;;;;;5.35;4.57;;;23.70;33.10;;;;;;4992986;28;20073;-62
2022/06/05 04:19:31;;;;;;;7.32;4.95;;;24.30;30.30;;;;;;5007981;28;20108;-62
2022/06/05 04:21:57;;;;;;;5.95;4.93;;;24.20;28.30;;;;;;5017637;28;20041;-62
2022/06/05 04:24:22;;;;;;;6.28;4.70;;;24.80;26.30;;;;;;5028970;28;20102;-62
2022/06/05 04:26:48;;;;;;;7.68;4.30;;;25.40;25.60;;;;;;5007508;28;20041;-62
2022/06/05 04:29:14;;;;;;;4.60;4.20;;;25.60;23.90;;;;;;5009261;28;20022;-63
2022/06/05 04:31:45;;;;;;;5.82;4.50;;;26.10;19.60;;;;;;5026028;28;20069;-62
2022/06/05 04:34:13;;;;;;;4.38;3.42;;;26.60;19.70;;;;;;5028869;28;20532;-62
2022/06/05 04:36:39;;;;;;;4.88;4.00;;;27.10;20.20;;;;;;5007261;28;20073;-62
2022/06/05 04:39:05;;;;;;;4.32;3.92;;;27.50;18.60;;;;;;5008839;28;20075;-62
2022/06/05 04:41:31;;;;;;;5.53;4.72;;;28.00;18.10;;;;;;5012732;28;20129;-62
2022/06/05 04:43:57;;;;;;;5.90;5.00;;;28.10;14.50;;;;;;4989598;28;20499;-62
2022/06/05 04:46:25;;;;;;;4.30;3.90;;;27.90;13.40;;;;;;5006376;28;20034;-62
2022/06/05 04:48:51;;;;;;;5.53;4.57;;;28.30;14.10;;;;;;5008941;28;20045;-63
2022/06/05 04:51:20;;;;;;;5.18;3.83;;;27.70;11.70;;;;;;5025867;28;20064;-63
2022/06/05 04:53:48;;;;;;;5.60;4.85;;;28.50;14.10;;;;;;5028754;28;20025;-63
2022/06/05 04:56:19;;;;;;;6.03;4.50;;;28.60;12.50;;;;;;5008179;28;20054;-62
2022/06/05 04:58:45;;;;;;;6.70;4.28;;;28.60;12.60;;;;;;5012713;28;20029;-62
2022/06/05 05:01:20;;;;;;;5.13;4.28;;;28.60;12.10;;;;;;5023838;28;20113;-62
2022/06/05 05:03:46;;;;;;;7.40;4.80;;;29.00;9.90;;;;;;5032388;28;20116;-63
2022/06/05 05:06:13;;;;;;;4.45;3.40;;;29.40;9.20;;;;;;5011277;28;20034;-61
2022/06/05 05:08:39;;;;;;;5.50;4.13;;;30.00;10.60;;;;;;5012685;28;20045;-60
2022/06/05 05:11:05;;;;;;;4.85;4.25;;;30.00;5.70;;;;;;5031667;28;20705;-61
2022/06/05 05:13:31;;;;;;;5.25;3.95;;;29.50;8.40;;;;;;5030367;28;20091;-59
2022/06/05 05:15:56;;;;;;;5.10;4.38;;;29.10;7.20;;;;;;5013088;28;20433;-62
2022/06/05 05:18:23;;;;;;;5.05;4.15;;;30.20;9.20;;;;;;5011236;28;20030;-60
2022/06/05 05:20:48;;;;;;;4.97;4.28;;;30.50;7.40;;;;;;5031498;28;20108;-61
2022/06/05 05:23:14;;;;;;;6.90;4.55;;;30.20;5.50;;;;;;4993939;28;20431;-61
2022/06/05 05:25:40;;;;;;;7.25;5.22;;;29.40;6.00;;;;;;5011617;28;20469;-60
2022/06/05 05:28:06;;;;;;;6.68;5.05;;;29.20;6.30;;;;;;5013385;28;20030;-60
2022/06/05 05:30:33;;;;;;;7.72;4.40;;;29.40;7.60;;;;;;5031227;28;20037;-60
2022/06/05 05:32:58;;;;;;;5.35;4.32;;;30.00;6.00;;;;;;4995840;28;20034;-60
2022/06/05 05:35:25;;;;;;;4.95;4.15;;;30.90;6.30;;;;;;4994206;28;20042;-61
2022/06/05 05:37:50;;;;;;;5.20;3.60;;;31.30;6.20;;;;;;5015100;28;20044;-61
2022/06/05 05:43:01;;;;;;;5.85;4.22;;;31.90;4.50;;;;;;5006164;28;20149;-61
2022/06/05 05:45:26;;;;;;;5.72;3.85;;;32.00;4.00;;;;;;5031133;28;20495;-62
2022/06/05 05:47:52;;;;;;;4.75;4.20;;;32.70;3.30;;;;;;4996327;28;20037;-62
2022/06/05 05:50:17;;;;;;;4.30;3.80;;;33.30;3.70;;;;;;5004394;28;20431;-62
2022/06/05 05:52:44;;;;;;;4.85;3.72;;;33.70;2.80;;;;;;5004204;28;20045;-62
2022/06/05 05:55:16;;;;;;;6.93;3.72;;;34.10;2.40;;;;;;5026773;28;20080;-63
2022/06/05 05:57:42;;;;;;;4.68;3.72;;;34.60;2.00;;;;;;5012274;28;20044;-62
2022/06/05 06:00:11;;;;;;;5.72;4.25;;;34.70;2.10;;;;;;5008659;28;20037;-62
2022/06/05 06:02:37;;;;;;;4.10;3.70;;;35.50;1.10;;;;;;5007945;28;20118;-61
2022/06/05 06:05:03;;;;;;;5.95;3.42;;;35.60;1.00;;;;;;5026427;28;20104;-62
2022/06/05 06:07:29;;;;;;;4.10;3.65;;;35.10;1.00;;;;;;5028639;28;20029;-62
2022/06/05 06:09:55;;;;;;;5.53;4.10;;;35.50;1.40;;;;;;5006248;28;20025;-62
2022/06/05 06:12:20;;;;;;;7.30;3.83;;;35.10;1.00;;;;;;5009926;28;20036;-62
2022/06/05 06:14:46;;;;;;;5.00;3.65;;;35.30;1.00;;;;;;5025444;28;20109;-62
2022/06/05 06:17:11;;;;;;;4.28;3.55;;;35.70;1.00;;;;;;5028997;28;20022;-62
2022/06/05 06:19:37;;;;;;;4.90;3.78;;;36.20;1.00;;;;;;5000117;28;20037;-61
2022/06/05 06:22:04;;;;;;;6.22;4.47;;;35.10;1.00;;;;;;4992951;28;20483;-62
2022/06/05 06:24:29;;;;;;;4.43;4.03;;;35.80;1.00;;;;;;5023274;28;20715;-62
2022/06/05 06:26:55;;;;;;;4.93;3.70;;;35.60;1.00;;;;;;5018716;28;20061;-62
2022/06/05 06:29:21;;;;;;;5.43;3.92;;;35.70;1.00;;;;;;5023412;28;20060;-62
2022/06/05 06:31:46;;;;;;;3.92;3.60;;;35.80;1.00;;;;;;5026120;28;20033;-62
2022/06/05 06:34:12;;;;;;;3.97;3.47;;;36.20;1.00;;;;;;5000570;28;20417;-62
2022/06/05 06:36:37;;;;;;;3.47;3.17;;;37.10;1.00;;;;;;5003393;28;20446;-61
2022/06/05 06:39:03;;;;;;;4.05;3.65;;;38.10;1.00;;;;;;5026541;28;20041;-62
2022/06/05 06:41:29;;;;;;;4.00;3.10;;;38.40;1.00;;;;;;5016668;28;20045;-62
2022/06/05 06:43:54;;;;;;;4.55;3.22;;;38.40;1.00;;;;;;5009040;28;20022;-62
2022/06/05 06:46:20;;;;;;;3.92;3.35;;;37.90;1.00;;;;;;5009535;28;20657;-62
2022/06/05 06:48:47;;;;;;;4.03;3.15;;;38.20;1.00;;;;;;5012905;28;20042;-62
2022/06/05 06:51:14;;;;;;;5.25;3.60;;;38.60;1.00;;;;;;5010713;28;20042;-62
2022/06/05 06:53:40;;;;;;;3.60;3.30;;;38.60;1.00;;;;;;5027330;28;20037;-62
2022/06/05 06:56:12;;;;;;;3.67;3.10;;;39.10;1.00;;;;;;5006694;28;20040;-62
2022/06/05 06:58:39;;;;;;;3.72;3.33;;;39.30;1.00;;;;;;5002447;28;20064;-61
2022/06/05 07:01:05;;;;;;;3.13;2.83;;;39.20;1.00;;;;;;4998694;28;20501;-62
2022/06/05 07:03:30;;;;;;;3.83;3.53;;;38.90;1.00;;;;;;5026766;28;20040;-62
2022/06/05 07:05:57;;;;;;;4.05;3.15;;;37.70;1.00;;;;;;4994635;28;20031;-62
2022/06/05 07:08:22;;;;;;;3.75;3.40;;;38.30;1.00;;;;;;4995800;28;20093;-62
2022/06/05 07:10:47;;;;;;;3.60;3.30;;;39.00;1.00;;;;;;5001502;28;20649;-62
2022/06/05 07:13:13;;;;;;;4.35;3.20;;;39.30;1.00;;;;;;5005955;28;20030;-62
2022/06/05 07:15:39;;;;;;;3.60;3.30;;;39.20;1.00;;;;;;5023902;28;20033;-62
2022/06/05 07:18:06;;;;;;;4.10;3.15;;;38.80;1.00;;;;;;5008322;28;20030;-62
2022/06/05 07:20:34;;;;;;;3.45;3.15;;;39.10;1.00;;;;;;5019903;28;20161;-62
2022/06/05 07:23:01;;;;;;;4.07;3.20;;;39.40;1.00;;;;;;5010990;28;20038;-62
2022/06/05 07:25:26;;;;;;;3.78;3.47;;;39.90;1.00;;;;;;5009404;28;20045;-63
2022/06/05 07:27:52;;;;;;;4.97;3.75;;;40.40;1.00;;;;;;5023859;28;20489;-62
2022/06/05 07:30:17;;;;;;;3.60;3.30;;;40.50;1.00;;;;;;5008493;28;20109;-64
2022/06/05 07:32:43;;;;;;;4.35;3.33;;;40.70;1.00;;;;;;5013270;28;20076;-63
2022/06/05 07:35:12;;;;;;;3.83;3.28;;;40.80;1.00;;;;;;5025268;28;20549;-63
2022/06/05 07:37:38;;;;;;;4.75;3.65;;;41.00;1.00;;;;;;5008853;28;20029;-64
2022/06/05 07:40:04;;;;;;;4.35;3.65;;;40.80;1.00;;;;;;5007053;28;20018;-64
2022/06/05 07:42:30;;;;;;;4.20;3.10;;;41.20;1.00;;;;;;5027898;28;20042;-63
2022/06/05 07:44:55;;;;;;;5.43;3.80;;;41.20;1.00;;;;;;5002868;28;20037;-62
2022/06/05 07:47:21;;;;;;;4.70;3.13;;;40.60;1.00;;;;;;5008695;28;20022;-62
2022/06/05 07:49:46;;;;;;;4.05;3.50;;;41.10;1.00;;;;;;5009639;28;20438;-62
2022/06/05 07:54:56;;;;;;;3.20;2.90;;;40.90;1.00;;;;;;5005280;28;20096;-65
2022/06/05 07:57:21;;;;;;;3.53;3.22;;;41.00;1.00;;;;;;5015776;28;20034;-63
2022/06/05 07:59:49;;;;;;;3.25;2.95;;;41.40;1.00;;;;;;4991959;28;20497;-62
2022/06/05 08:02:16;;;;;;;3.45;3.15;;;40.80;1.00;;;;;;5007561;28;20033;-62
2022/06/05 08:04:42;;;;;;;4.35;3.38;;;39.90;1.00;;;;;;5010073;28;20084;-63
2022/06/05 08:07:11;;;;;;;3.95;2.88;;;40.50;1.00;;;;;;5027635;28;20047;-63
2022/06/05 08:09:38;;;;;;;4.53;3.13;;;41.40;1.00;;;;;;4991803;28;20034;-63
2022/06/05 08:12:05;;;;;;;4.65;3.90;;;41.20;1.00;;;;;;5007928;28;20030;-64
2022/06/05 08:14:34;;;;;;;3.50;3.20;;;40.50;1.00;;;;;;5011463;28;20033;-63
2022/06/05 08:17:00;;;;;;;4.95;3.58;;;41.10;1.00;;;;;;5027590;28;20032;-63
2022/06/05 08:19:26;;;;;;;3.40;3.10;;;41.20;1.00;;;;;;4993586;28;20038;-63
2022/06/05 08:21:54;;;;;;;3.65;3.10;;;41.00;1.00;;;;;;5007463;28;20092;-64
2022/06/05 08:24:21;;;;;;;3.42;3.13;;;40.10;1.00;;;;;;5010419;28;20104;-64
2022/06/05 08:26:47;;;;;;;4.28;3.10;;;39.10;1.00;;;;;;5008014;28;20026;-64
2022/06/05 08:29:12;;;;;;;4.05;3.65;;;40.00;1.00;;;;;;5012426;28;20034;-66
2022/06/05 08:31:38;;;;;;;3.45;3.03;;;40.40;1.00;;;;;;5024706;28;20203;-61
2022/06/05 08:34:05;;;;;;;3.30;3.00;;;40.20;1.00;;;;;;5010421;28;20021;-61
2022/06/05 08:36:32;;;;;;;3.42;2.97;;;39.70;1.00;;;;;;4991567;28;20473;-63
2022/06/05 08:41:55;;;;;;;4.78;3.78;;;40.20;1.00;;;;;;5009253;28;20104;-63
2022/06/05 08:44:27;;;;;;;3.55;3.25;;;40.90;1.00;;;;;;5014433;28;20397;-63
2022/06/05 08:46:58;;;;;;;3.72;3.00;;;41.20;1.00;;;;;;5004122;28;20025;-64
2022/06/05 08:49:47;;;;;;;3.35;2.85;;;41.80;1.00;;;;;;5027786;28;20029;-63
2022/06/05 08:52:27;;;;;;;3.95;3.20;;;40.50;1.00;;;;;;4993837;28;20467;-64
2022/06/05 08:55:04;;;;;;;2.85;2.47;;;40.20;1.00;;;;;;5004684;28;20026;-64
2022/06/05 08:57:40;;;;;;;2.92;2.65;;;40.30;1.00;;;;;;4997518;28;20029;-64
2022/06/05 09:00:08;;;;;;;2.70;2.50;;;40.90;1.00;;;;;;5010695;28;20049;-64
2022/06/05 09:02:43;;;;;;;3.35;2.80;;;39.70;1.00;;;;;;5022546;28;20330;-63
2022/06/05 09:05:13;;;;;;;;;;;40.10;1.00;;;;;;5008071;28;20109;-64
2022/06/05 09:07:49;;;;;;;3.10;2.90;;;40.20;1.00;;;;;;5014008;28;19964;-63
2022/06/05 09:10:31;;;;;;;3.83;2.97;;;39.90;1.00;;;;;;5012077;28;20033;-57
2022/06/05 09:13:06;;;;;;;3.38;2.90;;;40.50;1.00;;;;;;4988116;28;20085;-57
2022/06/05 09:15:38;;;;;;;2.55;2.20;;;41.00;1.00;;;;;;5001123;28;20482;-58
2022/06/05 09:18:14;;;;;;;3.10;2.72;;;41.00;1.00;;;;;;5026756;28;20176;-55
2022/06/05 09:21:05;;;;;;;5.65;2.78;;;40.00;1.00;;;;;;5002574;28;20104;-56
2022/06/05 09:23:47;;;;;;;2.80;2.55;;;39.50;1.00;;;;;;4986698;28;20457;-55
2022/06/05 09:26:28;;;;;;;3.00;2.80;;;39.00;1.00;;;;;;4987922;28;20035;-54
2022/06/05 09:29:24;;;;;;;3.35;2.90;;;39.20;1.00;;;;;;4990044;28;20027;-53
2022/06/05 09:32:01;;;;;;;5.28;3.00;;;38.90;1.00;;;;;;5027121;28;20021;-54
2022/06/05 09:34:34;;;;;;;3.78;2.83;;;37.80;1.00;;;;;;4999089;28;20770;-53
2022/06/05 09:37:30;;;;;;;2.92;2.38;;;37.80;1.00;;;;;;5027251;28;20655;-54
2022/06/05 09:40:12;;;;;;;2.83;2.63;;;37.90;1.00;;;;;;5006720;28;20041;-52
2022/06/05 09:43:05;;;;;;;3.17;2.35;;;38.00;1.00;;;;;;4987689;28;20524;-57
2022/06/05 09:46:08;;;;;;;3.28;2.85;;;37.70;1.00;;;;;;5004885;28;20053;-53
2022/06/05 09:48:58;;;;;;;2.92;2.70;;;37.60;1.00;;;;;;5030715;28;20113;-57
2022/06/05 09:51:24;;;;;;;3.55;3.10;;;37.20;1.00;;;;;;5030633;28;20204;-56
2022/06/05 09:54:11;;;;;;;3.72;3.42;;;38.00;1.00;;;;;;5009165;28;20177;-54
2022/06/05 10:00:14;;;;;;;4.57;3.40;;;34.80;1.00;;;;;;5003609;28;20031;-54
2022/06/05 10:02:42;;;;;;;3.92;3.63;;;32.70;1.00;;;;;;5010663;28;20122;-54
2022/06/05 10:05:21;;;;;;;4.70;3.20;;;31.20;1.00;;;;;;5016029;28;20429;-54
2022/06/05 10:07:53;;;;;;;6.85;3.58;;;30.20;1.00;;;;;;4990904;28;20030;-53
2022/06/05 10:10:25;;;;;;;3.97;3.55;;;29.70;2.20;;;;;;5002771;28;20717;-54
2022/06/05 10:13:01;;;;;;;4.90;4.28;;;29.00;2.80;;;;;;5030201;28;20029;-54
2022/06/05 10:15:38;;;;;;;4.80;4.30;;;28.00;5.50;;;;;;5003811;28;20494;-55
2022/06/05 10:18:11;;;;;;;6.00;4.00;;;27.50;7.00;;;;;;4990494;28;20061;-54
2022/06/05 10:20:46;;;;;;;5.40;4.38;;;26.70;7.90;;;;;;5004798;28;20108;-55
2022/06/05 10:23:32;;;;;;;4.90;4.47;;;26.50;9.00;;;;;;5030125;28;20025;-56
2022/06/05 10:26:17;;;;;;;5.03;4.53;;;26.10;10.10;;;;;;4990136;28;20818;-51
2022/06/05 10:28:43;;;;;;;4.70;4.30;;;25.80;10.40;;;;;;4989618;28;20022;-52
2022/06/05 10:31:11;;;;;;;4.50;4.13;;;25.60;10.20;;;;;;5029804;28;20497;-55
2022/06/05 10:34:02;;;;;;;5.65;4.30;;;25.80;10.50;;;;;;5010175;28;20374;-52
2022/06/05 10:37:02;;;;;;;5.30;4.30;;;26.00;11.50;;;;;;5010215;28;20048;-56
2022/06/05 10:39:55;;;;;;;4.30;3.90;;;25.80;12.80;;;;;;4997178;28;20120;-52
2022/06/05 10:42:30;;;;;;;5.20;3.80;;;25.80;11.00;;;;;;4989961;28;20034;-54
2022/06/05 10:45:14;;;;;;;5.75;4.00;;;26.00;11.70;;;;;;5009428;28;20099;-56
2022/06/05 10:47:49;;;;;;;4.32;3.92;;;26.20;13.70;;;;;;4990214;28;20026;-55
2022/06/05 10:50:24;;;;;;;4.95;4.32;;;26.30;11.40;;;;;;5001445;28;20030;-56
2022/06/05 10:53:08;;;;;;;4.20;3.70;;;26.30;11.30;;;;;;5029406;28;20060;-55
2022/06/05 10:55:51;;;;;;;4.10;3.70;;;26.20;10.80;;;;;;5003610;28;20108;-55
2022/06/05 10:58:27;;;;;;;4.60;3.95;;;25.90;13.30;;;;;;5029189;28;20026;-56
2022/06/05 11:01:27;;;;;;;6.05;4.18;;;25.80;12.90;;;;;;5000100;28;20033;-52
2022/06/05 11:03:57;;;;;;;5.25;4.10;;;25.70;13.90;;;;;;4991342;28;20026;-56
2022/06/05 11:06:47;;;;;;;4.78;4.38;;;25.80;12.80;;;;;;5029042;28;20064;-55
2022/06/05 11:09:40;;;;;;;4.05;3.75;;;25.90;12.70;;;;;;4997177;28;20120;-54
2022/06/05 11:15:29;;;;;;;4.25;3.83;;;26.10;11.90;;;;;;5010288;28;20044;-55
2022/06/05 11:18:17;;;;;;;5.93;3.85;;;26.40;11.10;;;;;;4989922;28;20121;-55
2022/06/05 11:20:56;;;;;;;5.20;4.40;;;26.50;11.10;;;;;;5004633;28;20045;-54
2022/06/05 11:23:32;;;;;;;5.50;4.28;;;26.30;11.80;;;;;;5010679;28;20036;-53
2022/06/05 11:26:04;;;;;;;5.30;3.95;;;26.30;11.60;;;;;;4971836;28;20034;-54
2022/06/05 11:28:45;;;;;;;8.40;4.38;;;26.20;13.00;;;;;;4999042;28;20472;-56
2022/06/05 11:31:43;;;;;;;5.95;3.63;;;25.90;12.20;;;;;;4987906;28;20596;-56
2022/06/05 11:34:41;;;;;;;5.00;4.50;;;25.80;13.30;;;;;;4989696;28;20487;-56
2022/06/05 11:37:14;;;;;;;5.25;4.28;;;25.70;13.60;;;;;;4992465;28;20088;-55
2022/06/05 11:39:53;;;;;;;4.70;4.30;;;25.60;13.10;;;;;;5016213;28;20482;-56
2022/06/05 11:42:47;;;;;;;7.65;4.50;;;25.60;13.10;;;;;;5007138;28;20037;-53
2022/06/05 11:45:33;;;;;;;7.10;4.15;;;25.50;15.30;;;;;;5007718;28;20040;-56
2022/06/05 11:48:15;;;;;;;4.65;4.25;;;25.50;14.10;;;;;;5003696;28;20057;-51
2022/06/05 11:50:51;;;;;;;4.82;4.05;;;25.50;13.70;;;;;;4985315;28;20080;-56
2022/06/05 11:53:40;;;;;;;5.45;3.95;;;25.50;13.70;;;;;;5010486;28;20655;-55
2022/06/05 11:56:31;;;;;;;6.57;4.45;;;25.60;13.80;;;;;;4980765;28;20058;-52
2022/06/05 11:59:03;;;;;;;4.57;3.90;;;25.70;13.70;;;;;;4992341;28;20042;-54
2022/06/05 12:01:35;;;;;;;5.57;4.78;;;25.70;13.20;;;;;;4980737;28;20045;-56
2022/06/05 12:04:15;;;;;;;6.47;4.53;;;25.80;12.90;;;;;;5002764;28;20108;-56
2022/06/05 12:06:51;;;;;;;5.28;4.60;;;25.70;12.80;;;;;;4985930;28;20102;-55
2022/06/05 12:09:21;;;;;;;9.52;4.80;;;25.70;13.80;;;;;;4986222;28;20041;-53
2022/06/05 12:11:56;;;;;;;4.78;4.28;;;25.60;13.40;;;;;;5024952;28;20045;-50
2022/06/05 12:14:27;;;;;;;6.03;4.63;;;25.70;14.90;;;;;;5018536;28;20036;-54
2022/06/05 12:17:16;;;;;;;4.50;4.10;;;25.90;14.00;;;;;;4985426;28;20069;-56
2022/06/05 12:20:09;;;;;;;4.43;4.03;;;26.00;13.30;;;;;;5015444;28;20488;-56
2022/06/05 12:22:40;;;;;;;4.25;3.72;;;26.00;13.40;;;;;;4999018;28;20039;-55
2022/06/05 12:25:26;;;;;;;5.68;3.55;;;26.10;13.60;;;;;;5006334;28;20018;-55
2022/06/05 12:28:09;;;;;;;;;;;26.00;12.80;;;;;;5002961;28;20021;-55
2022/06/05 12:31:14;;;;;;;7.43;4.05;;;25.90;11.80;;;;;;5025113;28;20269;-57
2022/06/05 12:33:55;;;;;;;3.90;3.60;;;26.00;12.10;;;;;;5007201;28;20038;-55
2022/06/05 12:36:35;;;;;;;4.45;4.05;;;26.10;12.50;;;;;;5001567;28;20107;-58
2022/06/05 12:39:07;;;;;;;4.57;4.18;;;26.00;12.50;;;;;;4984200;28;20041;-56
2022/06/05 12:42:00;;;;;;;4.25;3.95;;;26.00;12.20;;;;;;4995916;28;20136;-56
2022/06/05 12:44:30;;;;;;;4.78;3.70;;;26.00;11.70;;;;;;4986216;28;20117;-55
2022/06/05 12:47:11;;;;;;;4.30;3.90;;;26.00;11.60;;;;;;5005031;28;20060;-55
2022/06/05 12:49:55;;;;;;;5.10;4.30;;;26.10;12.40;;;;;;5025384;28;20460;-56
2022/06/05 12:52:40;;;;;;;4.47;4.07;;;26.10;12.50;;;;;;4990658;28;20038;-53
2022/06/05 12:55:12;;;;;;;4.70;3.78;;;26.20;12.60;;;;;;5007853;28;20029;-57
2022/06/05 12:57:50;;;;;;;5.70;4.47;;;26.20;12.30;;;;;;5002842;28;20040;-56
2022/06/05 13:00:42;;;;;;;4.15;3.58;;;26.30;11.40;;;;;;5013508;28;20083;-58
2022/06/05 13:03:24;;;;;;;4.72;4.30;;;26.40;11.30;;;;;;4999093;28;20060;-58
2022/06/05 13:06:12;;;;;;;4.00;3.70;;;26.40;10.60;;;;;;4986405;28;20030;-59
2022/06/05 13:08:42;;;;;;;4.03;3.70;;;26.30;11.10;;;;;;4997785;28;20489;-58
2022/06/05 13:11:23;;;;;;;3.95;3.53;;;26.20;10.90;;;;;;5023542;28;20029;-58
2022/06/05 13:13:58;;;;;;;4.18;3.78;;;26.10;11.50;;;;;;4999816;28;20038;-57
2022/06/05 13:16:44;;;;;;;3.88;3.58;;;26.00;11.30;;;;;;5010328;28;20185;-58
2022/06/05 13:19:28;;;;;;;3.85;3.45;;;26.10;11.30;;;;;;5003373;28;20066;-57
2022/06/05 13:22:10;;;;;;;4.38;4.03;;;26.30;10.40;;;;;;5024139;28;20856;-59
2022/06/05 13:25:14;;;;;;;3.50;3.20;;;26.50;9.90;;;;;;5028778;28;20588;-59
2022/06/05 13:28:02;;;;;;;3.80;3.50;;;26.50;9.30;;;;;;4997067;28;20088;-59
2022/06/05 13:30:30;;;;;;;5.25;3.40;;;26.60;9.20;;;;;;5008979;28;20040;-59
2022/06/05 13:33:07;;;;;;;3.58;3.28;;;26.80;8.90;;;;;;5021223;28;20064;-60
2022/06/05 13:35:53;;;;;;;3.47;3.17;;;26.80;8.90;;;;;;4995681;28;20403;-60
2022/06/05 13:38:28;;;;;;;;;;;26.70;8.30;;;;;;5016768;28;20691;-59
2022/06/05 13:41:32;;;;;;;3.78;3.40;;;26.60;9.20;;;;;;5012094;28;19924;-59
2022/06/05 13:44:03;;;;;;;3.58;3.10;;;26.70;8.70;;;;;;4976084;28;20138;-58